Terminal Aerodrome Forecast
Issued by NWS Topeka, KS

Home | Current Version | Previous Version | Text Only | Print | Product List | Glossary On
Versions: 1 2 3 4 5 6 7 8 9 10 11 12 13 14 15 16 17 18 19 20
458
FTUS43 KTOP 050714 AAA
TAFTOP
TAF AMD
KTOP 050714Z 0507/0606 18002KT 6SM BR SKC
     FM051000 17004KT 4SM BR SKC
     FM051200 17006KT 2SM BR BKN008
     FM051700 18012G22KT P6SM SKC=

USA.gov is the U.S. government's official web portal to all federal, state and local government web resources and services.